sensor_id;sensor_type;location;lat;lon;timestamp;temperature;humidity
1415;DHT22;702;49.466;11.086;2023-04-28T00:00:30;9.50;61.00
1415;DHT22;702;49.466;11.086;2023-04-28T00:02:58;9.50;61.10
1415;DHT22;702;49.466;11.086;2023-04-28T00:05:26;9.40;61.10
1415;DHT22;702;49.466;11.086;2023-04-28T00:07:55;9.40;61.40
1415;DHT22;702;49.466;11.086;2023-04-28T00:10:22;9.40;61.50
1415;DHT22;702;49.466;11.086;2023-04-28T00:12:53;9.40;61.50
1415;DHT22;702;49.466;11.086;2023-04-28T00:15:22;9.40;61.60
1415;DHT22;702;49.466;11.086;2023-04-28T00:17:49;9.40;61.70
1415;DHT22;702;49.466;11.086;2023-04-28T00:20:24;9.50;61.80
1415;DHT22;702;49.466;11.086;2023-04-28T00:22:51;9.50;61.60
1415;DHT22;702;49.466;11.086;2023-04-28T00:25:20;9.50;61.60
1415;DHT22;702;49.466;11.086;2023-04-28T00:27:48;9.50;61.70
1415;DHT22;702;49.466;11.086;2023-04-28T00:30:20;9.50;61.80
1415;DHT22;702;49.466;11.086;2023-04-28T00:33:04;9.50;62.00
1415;DHT22;702;49.466;11.086;2023-04-28T00:35:31;9.40;62.00
1415;DHT22;702;49.466;11.086;2023-04-28T00:38:00;9.40;62.20
1415;DHT22;702;49.466;11.086;2023-04-28T00:40:32;9.40;62.20
1415;DHT22;702;49.466;11.086;2023-04-28T00:43:47;9.50;62.30
1415;DHT22;702;49.466;11.086;2023-04-28T00:46:23;9.50;62.20
1415;DHT22;702;49.466;11.086;2023-04-28T00:49:18;9.50;62.30
1415;DHT22;702;49.466;11.086;2023-04-28T00:51:47;9.60;62.30
1415;DHT22;702;49.466;11.086;2023-04-28T00:54:16;9.60;62.20
1415;DHT22;702;49.466;11.086;2023-04-28T00:56:43;9.60;62.00
1415;DHT22;702;49.466;11.086;2023-04-28T00:59:13;9.60;62.30
1415;DHT22;702;49.466;11.086;2023-04-28T01:01:44;9.70;62.30
1415;DHT22;702;49.466;11.086;2023-04-28T01:04:20;9.60;62.10
1415;DHT22;702;49.466;11.086;2023-04-28T01:06:51;9.70;62.30
1415;DHT22;702;49.466;11.086;2023-04-28T01:09:20;9.70;62.20
1415;DHT22;702;49.466;11.086;2023-04-28T01:11:52;9.70;62.30
1415;DHT22;702;49.466;11.086;2023-04-28T01:14:20;9.70;62.30
1415;DHT22;702;49.466;11.086;2023-04-28T01:16:49;9.70;62.20
1415;DHT22;702;49.466;11.086;2023-04-28T01:19:20;9.70;62.40
1415;DHT22;702;49.466;11.086;2023-04-28T01:21:49;9.70;62.50
1415;DHT22;702;49.466;11.086;2023-04-28T01:24:18;9.70;62.60
1415;DHT22;702;49.466;11.086;2023-04-28T01:26:46;9.70;62.60
1415;DHT22;702;49.466;11.086;2023-04-28T01:29:16;9.70;62.80
1415;DHT22;702;49.466;11.086;2023-04-28T01:31:45;9.70;62.90
1415;DHT22;702;49.466;11.086;2023-04-28T01:34:13;9.70;63.00
1415;DHT22;702;49.466;11.086;2023-04-28T01:36:40;9.80;63.30
1415;DHT22;702;49.466;11.086;2023-04-28T01:39:11;9.80;63.30
1415;DHT22;702;49.466;11.086;2023-04-28T01:41:41;9.80;63.30
1415;DHT22;702;49.466;11.086;2023-04-28T01:44:09;9.80;63.40
1415;DHT22;702;49.466;11.086;2023-04-28T01:46:37;9.80;63.50
1415;DHT22;702;49.466;11.086;2023-04-28T01:49:05;9.80;63.70
1415;DHT22;702;49.466;11.086;2023-04-28T01:51:32;9.80;63.70
1415;DHT22;702;49.466;11.086;2023-04-28T01:54:00;9.80;63.80
1415;DHT22;702;49.466;11.086;2023-04-28T01:56:28;9.80;64.10
1415;DHT22;702;49.466;11.086;2023-04-28T01:58:56;9.80;64.30
1415;DHT22;702;49.466;11.086;2023-04-28T02:01:24;9.70;64.20
1415;DHT22;702;49.466;11.086;2023-04-28T02:03:51;9.70;64.50
1415;DHT22;702;49.466;11.086;2023-04-28T02:06:20;9.70;64.50
1415;DHT22;702;49.466;11.086;2023-04-28T02:08:48;9.70;64.70
1415;DHT22;702;49.466;11.086;2023-04-28T02:11:15;9.70;64.80
1415;DHT22;702;49.466;11.086;2023-04-28T02:13:42;9.70;64.90
1415;DHT22;702;49.466;11.086;2023-04-28T02:16:11;9.70;65.10
1415;DHT22;702;49.466;11.086;2023-04-28T02:18:48;9.70;65.30
1415;DHT22;702;49.466;11.086;2023-04-28T02:21:17;9.70;65.40
1415;DHT22;702;49.466;11.086;2023-04-28T02:23:45;9.70;65.50
1415;DHT22;702;49.466;11.086;2023-04-28T02:26:13;9.70;65.50
1415;DHT22;702;49.466;11.086;2023-04-28T02:28:40;9.70;65.40
1415;DHT22;702;49.466;11.086;2023-04-28T02:31:09;9.80;65.50
1415;DHT22;702;49.466;11.086;2023-04-28T02:33:39;9.80;65.50
1415;DHT22;702;49.466;11.086;2023-04-28T02:36:08;9.80;65.50
1415;DHT22;702;49.466;11.086;2023-04-28T02:39:00;9.90;65.70
1415;DHT22;702;49.466;11.086;2023-04-28T02:41:27;9.90;65.70
1415;DHT22;702;49.466;11.086;2023-04-28T02:43:55;9.90;65.50
1415;DHT22;702;49.466;11.086;2023-04-28T02:46:24;10.00;64.60
1415;DHT22;702;49.466;11.086;2023-04-28T02:48:52;9.90;65.60
1415;DHT22;702;49.466;11.086;2023-04-28T02:51:20;9.90;65.60
1415;DHT22;702;49.466;11.086;2023-04-28T02:53:48;9.90;65.70
1415;DHT22;702;49.466;11.086;2023-04-28T02:56:17;10.00;64.70
1415;DHT22;702;49.466;11.086;2023-04-28T02:58:44;9.90;65.80
1415;DHT22;702;49.466;11.086;2023-04-28T03:01:12;9.90;65.90
1415;DHT22;702;49.466;11.086;2023-04-28T03:03:52;10.00;64.90
1415;DHT22;702;49.466;11.086;2023-04-28T03:06:20;10.00;64.80
1415;DHT22;702;49.466;11.086;2023-04-28T03:08:51;10.00;64.90
1415;DHT22;702;49.466;11.086;2023-04-28T03:11:20;10.00;64.90
1415;DHT22;702;49.466;11.086;2023-04-28T03:13:47;10.00;64.90
1415;DHT22;702;49.466;11.086;2023-04-28T03:16:18;10.00;64.90
1415;DHT22;702;49.466;11.086;2023-04-28T03:18:45;10.00;65.10
1415;DHT22;702;49.466;11.086;2023-04-28T03:21:14;10.00;65.10
1415;DHT22;702;49.466;11.086;2023-04-28T03:23:47;10.00;65.10
1415;DHT22;702;49.466;11.086;2023-04-28T03:26:14;10.10;65.20
1415;DHT22;702;49.466;11.086;2023-04-28T03:28:42;10.00;65.20
1415;DHT22;702;49.466;11.086;2023-04-28T03:31:10;10.10;65.10
1415;DHT22;702;49.466;11.086;2023-04-28T03:33:39;10.10;65.10
1415;DHT22;702;49.466;11.086;2023-04-28T03:36:08;10.20;65.10
1415;DHT22;702;49.466;11.086;2023-04-28T03:38:36;10.20;65.00
1415;DHT22;702;49.466;11.086;2023-04-28T03:41:05;10.20;65.00
1415;DHT22;702;49.466;11.086;2023-04-28T03:43:52;10.20;65.00
1415;DHT22;702;49.466;11.086;2023-04-28T03:46:21;10.20;65.00
1415;DHT22;702;49.466;11.086;2023-04-28T03:48:48;10.20;65.00
1415;DHT22;702;49.466;11.086;2023-04-28T03:51:17;10.20;65.00
1415;DHT22;702;49.466;11.086;2023-04-28T03:53:45;10.20;65.00
1415;DHT22;702;49.466;11.086;2023-04-28T03:56:13;10.20;64.90
1415;DHT22;702;49.466;11.086;2023-04-28T03:58:40;10.20;64.90
1415;DHT22;702;49.466;11.086;2023-04-28T04:01:08;10.20;64.90
1415;DHT22;702;49.466;11.086;2023-04-28T04:03:36;10.30;64.80
1415;DHT22;702;49.466;11.086;2023-04-28T04:06:05;10.30;64.80
1415;DHT22;702;49.466;11.086;2023-04-28T04:08:33;10.30;64.60
1415;DHT22;702;49.466;11.086;2023-04-28T04:11:02;10.30;64.70
1415;DHT22;702;49.466;11.086;2023-04-28T04:13:29;10.30;65.00
1415;DHT22;702;49.466;11.086;2023-04-28T04:15:59;10.40;64.70
1415;DHT22;702;49.466;11.086;2023-04-28T04:18:27;10.40;64.50
1415;DHT22;702;49.466;11.086;2023-04-28T04:20:58;10.50;64.90
1415;DHT22;702;49.466;11.086;2023-04-28T04:23:25;10.50;64.80
1415;DHT22;702;49.466;11.086;2023-04-28T04:25:52;10.50;65.00
1415;DHT22;702;49.466;11.086;2023-04-28T04:28:21;10.50;64.90
1415;DHT22;702;49.466;11.086;2023-04-28T04:30:49;10.50;65.20
1415;DHT22;702;49.466;11.086;2023-04-28T04:33:17;10.50;64.90
1415;DHT22;702;49.466;11.086;2023-04-28T04:35:53;10.60;64.90
1415;DHT22;702;49.466;11.086;2023-04-28T04:38:21;10.60;65.00
1415;DHT22;702;49.466;11.086;2023-04-28T04:40:48;10.60;64.90
1415;DHT22;702;49.466;11.086;2023-04-28T04:43:16;10.70;64.80
1415;DHT22;702;49.466;11.086;2023-04-28T04:45:44;10.80;65.00
1415;DHT22;702;49.466;11.086;2023-04-28T04:48:12;10.80;64.70
1415;DHT22;702;49.466;11.086;2023-04-28T04:50:39;10.90;64.70
1415;DHT22;702;49.466;11.086;2023-04-28T04:53:08;11.00;64.40
1415;DHT22;702;49.466;11.086;2023-04-28T04:55:35;11.00;64.30
1415;DHT22;702;49.466;11.086;2023-04-28T04:58:03;11.00;64.70
1415;DHT22;702;49.466;11.086;2023-04-28T05:00:30;11.00;65.00
1415;DHT22;702;49.466;11.086;2023-04-28T05:02:59;11.00;65.30
1415;DHT22;702;49.466;11.086;2023-04-28T05:05:29;11.00;65.50
1415;DHT22;702;49.466;11.086;2023-04-28T05:07:56;11.00;65.40
1415;DHT22;702;49.466;11.086;2023-04-28T05:10:23;11.00;65.50
1415;DHT22;702;49.466;11.086;2023-04-28T05:12:51;11.00;65.30
1415;DHT22;702;49.466;11.086;2023-04-28T05:15:18;11.10;65.30
1415;DHT22;702;49.466;11.086;2023-04-28T05:17:45;11.10;65.40
1415;DHT22;702;49.466;11.086;2023-04-28T05:20:14;11.20;65.10
1415;DHT22;702;49.466;11.086;2023-04-28T05:22:41;11.20;64.80
1415;DHT22;702;49.466;11.086;2023-04-28T05:25:09;11.20;64.80
1415;DHT22;702;49.466;11.086;2023-04-28T05:27:36;11.20;64.80
1415;DHT22;702;49.466;11.086;2023-04-28T05:30:05;11.30;65.00
1415;DHT22;702;49.466;11.086;2023-04-28T05:32:33;11.30;64.70
1415;DHT22;702;49.466;11.086;2023-04-28T05:35:02;11.40;64.80
1415;DHT22;702;49.466;11.086;2023-04-28T05:37:30;11.40;64.90
1415;DHT22;702;49.466;11.086;2023-04-28T05:39:57;11.50;65.00
1415;DHT22;702;49.466;11.086;2023-04-28T05:42:25;11.40;65.40
1415;DHT22;702;49.466;11.086;2023-04-28T05:44:52;11.40;66.10
1415;DHT22;702;49.466;11.086;2023-04-28T05:47:19;11.60;67.30
1415;DHT22;702;49.466;11.086;2023-04-28T05:49:46;11.60;66.60
1415;DHT22;702;49.466;11.086;2023-04-28T05:52:14;11.60;66.90
1415;DHT22;702;49.466;11.086;2023-04-28T05:54:42;11.60;67.50
1415;DHT22;702;49.466;11.086;2023-04-28T05:57:10;11.70;67.60
1415;DHT22;702;49.466;11.086;2023-04-28T05:59:37;11.80;67.90
1415;DHT22;702;49.466;11.086;2023-04-28T06:02:05;11.80;68.50
1415;DHT22;702;49.466;11.086;2023-04-28T06:04:32;11.70;68.10
1415;DHT22;702;49.466;11.086;2023-04-28T06:06:59;11.70;69.30
1415;DHT22;702;49.466;11.086;2023-04-28T06:09:27;11.60;70.00
1415;DHT22;702;49.466;11.086;2023-04-28T06:11:55;11.60;70.60
1415;DHT22;702;49.466;11.086;2023-04-28T06:14:22;11.60;71.00
1415;DHT22;702;49.466;11.086;2023-04-28T06:16:50;11.70;71.00
1415;DHT22;702;49.466;11.086;2023-04-28T06:19:17;11.70;71.40
1415;DHT22;702;49.466;11.086;2023-04-28T06:21:45;11.70;71.70
1415;DHT22;702;49.466;11.086;2023-04-28T06:24:14;11.60;72.50
1415;DHT22;702;49.466;11.086;2023-04-28T06:26:42;11.60;72.50
1415;DHT22;702;49.466;11.086;2023-04-28T06:29:10;11.70;72.80
1415;DHT22;702;49.466;11.086;2023-04-28T06:31:37;11.50;72.40
1415;DHT22;702;49.466;11.086;2023-04-28T06:34:05;11.50;72.70
1415;DHT22;702;49.466;11.086;2023-04-28T06:36:32;11.60;72.50
1415;DHT22;702;49.466;11.086;2023-04-28T06:38:59;11.50;72.30
1415;DHT22;702;49.466;11.086;2023-04-28T06:41:26;11.50;72.80
1415;DHT22;702;49.466;11.086;2023-04-28T06:43:54;11.50;73.00
1415;DHT22;702;49.466;11.086;2023-04-28T06:46:23;11.40;73.20
1415;DHT22;702;49.466;11.086;2023-04-28T06:48:50;11.40;73.60
1415;DHT22;702;49.466;11.086;2023-04-28T06:51:17;11.40;74.40
1415;DHT22;702;49.466;11.086;2023-04-28T06:53:45;11.40;74.80
1415;DHT22;702;49.466;11.086;2023-04-28T06:56:13;11.50;75.20
1415;DHT22;702;49.466;11.086;2023-04-28T06:58:40;11.50;75.00
1415;DHT22;702;49.466;11.086;2023-04-28T07:01:07;11.40;75.00
1415;DHT22;702;49.466;11.086;2023-04-28T07:03:36;11.40;75.80
1415;DHT22;702;49.466;11.086;2023-04-28T07:06:04;11.30;76.20
1415;DHT22;702;49.466;11.086;2023-04-28T07:08:32;11.30;77.10
1415;DHT22;702;49.466;11.086;2023-04-28T07:10:59;11.40;77.40
1415;DHT22;702;49.466;11.086;2023-04-28T07:13:29;11.40;78.00
1415;DHT22;702;49.466;11.086;2023-04-28T07:15:56;11.50;78.60
1415;DHT22;702;49.466;11.086;2023-04-28T07:18:24;11.50;78.80
1415;DHT22;702;49.466;11.086;2023-04-28T07:20:52;11.50;78.80
1415;DHT22;702;49.466;11.086;2023-04-28T07:23:19;11.40;78.60
1415;DHT22;702;49.466;11.086;2023-04-28T07:25:47;11.30;79.50
1415;DHT22;702;49.466;11.086;2023-04-28T07:28:14;11.30;80.50
1415;DHT22;702;49.466;11.086;2023-04-28T07:30:41;11.10;81.10
1415;DHT22;702;49.466;11.086;2023-04-28T07:33:09;11.20;81.30
1415;DHT22;702;49.466;11.086;2023-04-28T07:35:36;11.00;81.20
1415;DHT22;702;49.466;11.086;2023-04-28T07:38:04;11.00;82.50
1415;DHT22;702;49.466;11.086;2023-04-28T07:40:32;11.00;83.00
1415;DHT22;702;49.466;11.086;2023-04-28T07:42:59;11.10;83.80
1415;DHT22;702;49.466;11.086;2023-04-28T07:45:26;10.80;84.60
1415;DHT22;702;49.466;11.086;2023-04-28T07:47:53;10.70;86.40
1415;DHT22;702;49.466;11.086;2023-04-28T07:50:21;10.70;86.20
1415;DHT22;702;49.466;11.086;2023-04-28T07:52:48;10.70;86.40
1415;DHT22;702;49.466;11.086;2023-04-28T07:55:17;10.80;86.80
1415;DHT22;702;49.466;11.086;2023-04-28T07:57:44;10.90;88.70
1415;DHT22;702;49.466;11.086;2023-04-28T08:00:13;11.00;88.20
1415;DHT22;702;49.466;11.086;2023-04-28T08:02:40;10.90;89.90
1415;DHT22;702;49.466;11.086;2023-04-28T08:05:08;10.70;90.80
1415;DHT22;702;49.466;11.086;2023-04-28T08:07:36;10.70;90.60
1415;DHT22;702;49.466;11.086;2023-04-28T08:10:03;10.50;91.70
1415;DHT22;702;49.466;11.086;2023-04-28T08:12:32;10.50;92.50
1415;DHT22;702;49.466;11.086;2023-04-28T08:15:00;10.40;93.30
1415;DHT22;702;49.466;11.086;2023-04-28T08:17:28;10.50;93.40
1415;DHT22;702;49.466;11.086;2023-04-28T08:19:55;10.60;93.90
1415;DHT22;702;49.466;11.086;2023-04-28T08:22:23;10.60;94.00
1415;DHT22;702;49.466;11.086;2023-04-28T08:24:50;10.70;94.40
1415;DHT22;702;49.466;11.086;2023-04-28T08:27:18;10.70;94.00
1415;DHT22;702;49.466;11.086;2023-04-28T08:29:47;10.70;94.40
1415;DHT22;702;49.466;11.086;2023-04-28T08:32:14;10.70;94.70
1415;DHT22;702;49.466;11.086;2023-04-28T08:34:41;10.80;93.90
1415;DHT22;702;49.466;11.086;2023-04-28T08:37:09;10.90;93.90
1415;DHT22;702;49.466;11.086;2023-04-28T08:39:36;11.20;94.50
1415;DHT22;702;49.466;11.086;2023-04-28T08:42:04;11.40;92.50
1415;DHT22;702;49.466;11.086;2023-04-28T08:44:35;11.50;92.20
1415;DHT22;702;49.466;11.086;2023-04-28T08:47:10;11.50;92.50
1415;DHT22;702;49.466;11.086;2023-04-28T08:49:40;11.50;92.00
1415;DHT22;702;49.466;11.086;2023-04-28T08:52:10;11.60;91.70
1415;DHT22;702;49.466;11.086;2023-04-28T08:54:39;11.70;91.70
1415;DHT22;702;49.466;11.086;2023-04-28T08:57:08;11.60;91.60
1415;DHT22;702;49.466;11.086;2023-04-28T08:59:39;11.70;91.70
1415;DHT22;702;49.466;11.086;2023-04-28T09:02:08;11.50;92.00
1415;DHT22;702;49.466;11.086;2023-04-28T09:04:36;11.30;92.60
1415;DHT22;702;49.466;11.086;2023-04-28T09:07:09;11.20;95.00
1415;DHT22;702;49.466;11.086;2023-04-28T09:09:37;11.20;95.20
1415;DHT22;702;49.466;11.086;2023-04-28T09:12:05;11.20;93.90
1415;DHT22;702;49.466;11.086;2023-04-28T09:14:35;11.10;95.90
1415;DHT22;702;49.466;11.086;2023-04-28T09:17:10;11.20;94.90
1415;DHT22;702;49.466;11.086;2023-04-28T09:19:39;11.10;95.50
1415;DHT22;702;49.466;11.086;2023-04-28T09:22:08;11.00;96.30
1415;DHT22;702;49.466;11.086;2023-04-28T09:24:37;11.00;96.90
1415;DHT22;702;49.466;11.086;2023-04-28T09:27:06;11.10;96.60
1415;DHT22;702;49.466;11.086;2023-04-28T09:29:36;11.10;96.50
1415;DHT22;702;49.466;11.086;2023-04-28T09:32:14;11.20;96.40
1415;DHT22;702;49.466;11.086;2023-04-28T09:34:43;11.40;95.70
1415;DHT22;702;49.466;11.086;2023-04-28T09:37:16;11.30;95.70
1415;DHT22;702;49.466;11.086;2023-04-28T09:39:45;11.20;97.80
1415;DHT22;702;49.466;11.086;2023-04-28T09:42:30;11.20;97.80
1415;DHT22;702;49.466;11.086;2023-04-28T09:44:59;11.10;98.80
1415;DHT22;702;49.466;11.086;2023-04-28T09:47:30;11.20;98.00
1415;DHT22;702;49.466;11.086;2023-04-28T09:49:59;11.30;99.30
1415;DHT22;702;49.466;11.086;2023-04-28T09:52:27;11.30;99.90
1415;DHT22;702;49.466;11.086;2023-04-28T09:54:55;11.50;99.30
1415;DHT22;702;49.466;11.086;2023-04-28T09:57:23;11.70;98.40
1415;DHT22;702;49.466;11.086;2023-04-28T09:59:51;11.90;95.80
1415;DHT22;702;49.466;11.086;2023-04-28T10:02:20;12.10;95.70
1415;DHT22;702;49.466;11.086;2023-04-28T10:04:49;12.30;94.80
1415;DHT22;702;49.466;11.086;2023-04-28T10:07:18;12.40;94.40
1415;DHT22;702;49.466;11.086;2023-04-28T10:09:47;12.40;94.10
1415;DHT22;702;49.466;11.086;2023-04-28T10:12:15;12.40;95.40
1415;DHT22;702;49.466;11.086;2023-04-28T10:14:43;12.30;95.30
1415;DHT22;702;49.466;11.086;2023-04-28T10:17:12;12.40;95.30
1415;DHT22;702;49.466;11.086;2023-04-28T10:19:40;12.50;94.70
1415;DHT22;702;49.466;11.086;2023-04-28T10:22:22;12.80;94.20
1415;DHT22;702;49.466;11.086;2023-04-28T10:25:16;12.90;93.60
1415;DHT22;702;49.466;11.086;2023-04-28T10:27:51;12.90;93.50
1415;DHT22;702;49.466;11.086;2023-04-28T10:30:20;13.10;92.60
1415;DHT22;702;49.466;11.086;2023-04-28T10:33:23;13.30;92.00
1415;DHT22;702;49.466;11.086;2023-04-28T10:35:54;13.50;91.40
1415;DHT22;702;49.466;11.086;2023-04-28T10:38:22;13.80;91.10
1415;DHT22;702;49.466;11.086;2023-04-28T10:40:50;13.60;90.60
1415;DHT22;702;49.466;11.086;2023-04-28T10:43:35;13.80;90.80
1415;DHT22;702;49.466;11.086;2023-04-28T10:46:08;14.00;90.80
1415;DHT22;702;49.466;11.086;2023-04-28T10:48:55;14.20;89.20
1415;DHT22;702;49.466;11.086;2023-04-28T10:51:30;13.90;90.00
1415;DHT22;702;49.466;11.086;2023-04-28T10:54:15;13.40;91.40
1415;DHT22;702;49.466;11.086;2023-04-28T10:57:18;13.40;91.90
1415;DHT22;702;49.466;11.086;2023-04-28T10:59:46;13.40;91.80
1415;DHT22;702;49.466;11.086;2023-04-28T11:02:38;13.20;92.80
1415;DHT22;702;49.466;11.086;2023-04-28T11:05:13;13.40;92.40
1415;DHT22;702;49.466;11.086;2023-04-28T11:11:15;14.30;90.70
1415;DHT22;702;49.466;11.086;2023-04-28T11:13:47;14.80;88.40
1415;DHT22;702;49.466;11.086;2023-04-28T11:16:23;14.90;88.70
1415;DHT22;702;49.466;11.086;2023-04-28T11:18:59;14.90;87.60
1415;DHT22;702;49.466;11.086;2023-04-28T11:21:30;15.10;88.20
1415;DHT22;702;49.466;11.086;2023-04-28T11:23:58;15.30;88.20
1415;DHT22;702;49.466;11.086;2023-04-28T11:26:27;15.50;87.30
1415;DHT22;702;49.466;11.086;2023-04-28T11:28:56;15.30;88.00
1415;DHT22;702;49.466;11.086;2023-04-28T11:31:25;14.80;88.70
1415;DHT22;702;49.466;11.086;2023-04-28T11:33:57;14.80;89.60
1415;DHT22;702;49.466;11.086;2023-04-28T11:36:32;15.10;89.20
1415;DHT22;702;49.466;11.086;2023-04-28T11:39:01;15.20;89.00
1415;DHT22;702;49.466;11.086;2023-04-28T11:41:31;15.20;89.40
1415;DHT22;702;49.466;11.086;2023-04-28T11:44:00;15.10;88.50
1415;DHT22;702;49.466;11.086;2023-04-28T11:46:27;15.30;89.30
1415;DHT22;702;49.466;11.086;2023-04-28T11:49:02;15.40;89.40
1415;DHT22;702;49.466;11.086;2023-04-28T11:51:32;15.70;88.00
1415;DHT22;702;49.466;11.086;2023-04-28T11:54:01;15.90;86.80
1415;DHT22;702;49.466;11.086;2023-04-28T11:56:30;16.00;86.50
1415;DHT22;702;49.466;11.086;2023-04-28T11:59:04;15.90;87.20
1415;DHT22;702;49.466;11.086;2023-04-28T12:01:33;15.90;87.00
1415;DHT22;702;49.466;11.086;2023-04-28T12:04:03;16.00;88.00
1415;DHT22;702;49.466;11.086;2023-04-28T12:06:30;16.30;86.30
1415;DHT22;702;49.466;11.086;2023-04-28T12:08:58;16.50;86.30
1415;DHT22;702;49.466;11.086;2023-04-28T12:11:30;16.10;86.90
1415;DHT22;702;49.466;11.086;2023-04-28T12:14:04;16.10;87.40
1415;DHT22;702;49.466;11.086;2023-04-28T12:16:37;16.00;88.10
1415;DHT22;702;49.466;11.086;2023-04-28T12:19:09;16.70;86.20
1415;DHT22;702;49.466;11.086;2023-04-28T12:21:38;16.90;86.10
1415;DHT22;702;49.466;11.086;2023-04-28T12:24:15;16.70;86.80
1415;DHT22;702;49.466;11.086;2023-04-28T12:26:46;16.40;86.20
1415;DHT22;702;49.466;11.086;2023-04-28T12:29:34;16.20;86.80
1415;DHT22;702;49.466;11.086;2023-04-28T12:32:06;16.70;86.80
1415;DHT22;702;49.466;11.086;2023-04-28T12:34:37;17.20;85.80
1415;DHT22;702;49.466;11.086;2023-04-28T12:37:06;17.20;84.80
1415;DHT22;702;49.466;11.086;2023-04-28T12:39:35;17.40;84.30
1415;DHT22;702;49.466;11.086;2023-04-28T12:42:03;17.60;85.10
1415;DHT22;702;49.466;11.086;2023-04-28T12:44:32;17.50;84.20
1415;DHT22;702;49.466;11.086;2023-04-28T12:47:06;17.80;84.00
1415;DHT22;702;49.466;11.086;2023-04-28T12:49:36;18.10;83.00
1415;DHT22;702;49.466;11.086;2023-04-28T12:52:04;18.60;82.10
1415;DHT22;702;49.466;11.086;2023-04-28T12:54:32;18.90;81.70
1415;DHT22;702;49.466;11.086;2023-04-28T12:56:59;19.10;81.50
1415;DHT22;702;49.466;11.086;2023-04-28T12:59:29;18.90;80.30
1415;DHT22;702;49.466;11.086;2023-04-28T13:01:57;18.30;81.30
1415;DHT22;702;49.466;11.086;2023-04-28T13:04:24;17.70;82.60
1415;DHT22;702;49.466;11.086;2023-04-28T13:06:52;17.60;83.50
1415;DHT22;702;49.466;11.086;2023-04-28T13:09:19;17.50;83.50
1415;DHT22;702;49.466;11.086;2023-04-28T13:11:46;17.20;83.80
1415;DHT22;702;49.466;11.086;2023-04-28T13:14:14;16.80;84.40
1415;DHT22;702;49.466;11.086;2023-04-28T13:16:42;16.50;85.40
1415;DHT22;702;49.466;11.086;2023-04-28T13:19:10;16.50;85.80
1415;DHT22;702;49.466;11.086;2023-04-28T13:21:38;16.50;85.80
1415;DHT22;702;49.466;11.086;2023-04-28T13:24:06;16.50;86.10
1415;DHT22;702;49.466;11.086;2023-04-28T13:26:34;16.60;85.80
1415;DHT22;702;49.466;11.086;2023-04-28T13:29:02;16.80;85.80
1415;DHT22;702;49.466;11.086;2023-04-28T13:31:33;16.90;85.50
1415;DHT22;702;49.466;11.086;2023-04-28T13:34:02;16.50;86.40
1415;DHT22;702;49.466;11.086;2023-04-28T13:36:30;16.50;86.40
1415;DHT22;702;49.466;11.086;2023-04-28T13:38:59;16.70;86.90
1415;DHT22;702;49.466;11.086;2023-04-28T13:41:26;17.40;85.90
1415;DHT22;702;49.466;11.086;2023-04-28T13:43:54;17.80;85.30
1415;DHT22;702;49.466;11.086;2023-04-28T13:46:21;18.10;84.40
1415;DHT22;702;49.466;11.086;2023-04-28T13:48:48;18.40;83.90
1415;DHT22;702;49.466;11.086;2023-04-28T13:51:17;18.90;82.50
1415;DHT22;702;49.466;11.086;2023-04-28T13:53:44;19.20;82.00
1415;DHT22;702;49.466;11.086;2023-04-28T13:56:12;18.90;82.10
1415;DHT22;702;49.466;11.086;2023-04-28T13:58:39;18.60;82.10
1415;DHT22;702;49.466;11.086;2023-04-28T14:01:07;18.50;82.40
1415;DHT22;702;49.466;11.086;2023-04-28T14:03:34;18.50;81.80
1415;DHT22;702;49.466;11.086;2023-04-28T14:06:01;18.10;81.80
1415;DHT22;702;49.466;11.086;2023-04-28T14:08:31;17.50;82.90
1415;DHT22;702;49.466;11.086;2023-04-28T14:10:58;17.40;83.60
1415;DHT22;702;49.466;11.086;2023-04-28T14:13:26;17.50;83.70
1415;DHT22;702;49.466;11.086;2023-04-28T14:15:54;17.30;83.60
1415;DHT22;702;49.466;11.086;2023-04-28T14:18:22;17.30;83.90
1415;DHT22;702;49.466;11.086;2023-04-28T14:20:49;17.50;84.50
1415;DHT22;702;49.466;11.086;2023-04-28T14:23:18;17.80;83.80
1415;DHT22;702;49.466;11.086;2023-04-28T14:25:47;17.70;83.80
1415;DHT22;702;49.466;11.086;2023-04-28T14:28:15;17.90;83.50
1415;DHT22;702;49.466;11.086;2023-04-28T14:30:42;17.80;83.70
1415;DHT22;702;49.466;11.086;2023-04-28T14:33:09;17.90;83.30
1415;DHT22;702;49.466;11.086;2023-04-28T14:35:36;18.00;83.60
1415;DHT22;702;49.466;11.086;2023-04-28T14:38:04;18.00;83.00
1415;DHT22;702;49.466;11.086;2023-04-28T14:40:31;17.80;83.50
1415;DHT22;702;49.466;11.086;2023-04-28T14:43:01;17.50;84.00
1415;DHT22;702;49.466;11.086;2023-04-28T14:45:28;17.40;84.00
1415;DHT22;702;49.466;11.086;2023-04-28T14:47:55;17.20;84.00
1415;DHT22;702;49.466;11.086;2023-04-28T14:50:23;17.00;84.80
1415;DHT22;702;49.466;11.086;2023-04-28T14:52:51;17.00;85.40
1415;DHT22;702;49.466;11.086;2023-04-28T14:55:18;16.90;85.60
1415;DHT22;702;49.466;11.086;2023-04-28T14:57:46;16.70;85.80
1415;DHT22;702;49.466;11.086;2023-04-28T15:00:16;16.90;85.70
1415;DHT22;702;49.466;11.086;2023-04-28T15:02:44;17.00;85.60
1415;DHT22;702;49.466;11.086;2023-04-28T15:05:12;17.00;85.70
1415;DHT22;702;49.466;11.086;2023-04-28T15:07:40;16.90;85.80
1415;DHT22;702;49.466;11.086;2023-04-28T15:10:08;16.90;85.80
1415;DHT22;702;49.466;11.086;2023-04-28T15:12:35;16.90;86.00
1415;DHT22;702;49.466;11.086;2023-04-28T15:15:02;17.10;86.20
1415;DHT22;702;49.466;11.086;2023-04-28T15:17:32;17.40;85.40
1415;DHT22;702;49.466;11.086;2023-04-28T15:19:59;17.80;84.80
1415;DHT22;702;49.466;11.086;2023-04-28T15:22:26;18.30;84.20
1415;DHT22;702;49.466;11.086;2023-04-28T15:24:53;18.40;83.30
1415;DHT22;702;49.466;11.086;2023-04-28T15:27:20;18.30;83.30
1415;DHT22;702;49.466;11.086;2023-04-28T15:29:48;18.10;83.50
1415;DHT22;702;49.466;11.086;2023-04-28T15:32:16;17.70;84.00
1415;DHT22;702;49.466;11.086;2023-04-28T15:34:45;17.50;84.50
1415;DHT22;702;49.466;11.086;2023-04-28T15:37:40;17.50;84.80
1415;DHT22;702;49.466;11.086;2023-04-28T15:40:10;17.50;84.80
1415;DHT22;702;49.466;11.086;2023-04-28T15:42:39;17.40;84.90
1415;DHT22;702;49.466;11.086;2023-04-28T15:45:10;17.20;85.50
1415;DHT22;702;49.466;11.086;2023-04-28T15:47:38;17.20;85.50
1415;DHT22;702;49.466;11.086;2023-04-28T15:50:08;17.30;85.60
1415;DHT22;702;49.466;11.086;2023-04-28T15:52:37;17.00;85.80
1415;DHT22;702;49.466;11.086;2023-04-28T15:55:06;16.90;85.80
1415;DHT22;702;49.466;11.086;2023-04-28T15:57:35;16.80;86.30
1415;DHT22;702;49.466;11.086;2023-04-28T16:00:04;16.80;86.60
1415;DHT22;702;49.466;11.086;2023-04-28T16:02:33;16.70;86.80
1415;DHT22;702;49.466;11.086;2023-04-28T16:05:00;16.60;87.00
1415;DHT22;702;49.466;11.086;2023-04-28T16:07:31;16.50;87.40
1415;DHT22;702;49.466;11.086;2023-04-28T16:10:03;16.40;87.90
1415;DHT22;702;49.466;11.086;2023-04-28T16:12:30;16.50;88.40
1415;DHT22;702;49.466;11.086;2023-04-28T16:14:58;16.40;89.10
1415;DHT22;702;49.466;11.086;2023-04-28T16:17:26;16.40;89.80
1415;DHT22;702;49.466;11.086;2023-04-28T16:19:53;16.30;90.20
1415;DHT22;702;49.466;11.086;2023-04-28T16:22:20;16.30;91.30